Time;durP1;ratioP1;P1;durP2;ratioP2;P2;SDS_P1;SDS_P2;PMS_P1;PMS_P2;Temp;Humidity;BMP_temperature;BMP_pressure;BME280_temperature;BME280_humidity;BME280_pressure;Samples;Min_cycle;Max_cycle;Signal;HPM_P1;HPM_P2
2022/11/23 00:00:00;;;;;;;1.10;1.00;;;;;;;8.30;68.34;92135.53;5049792;28;20486;-35
2022/11/23 00:02:26;;;;;;;3.78;1.10;;;;;;;8.32;68.32;92119.19;5049779;28;20025;-34
2022/11/23 00:04:51;;;;;;;1.85;1.05;;;;;;;8.34;68.32;92116.59;5051882;28;20024;-34
2022/11/23 00:07:17;;;;;;;2.17;1.00;;;;;;;8.35;68.94;92109.81;5069686;28;20024;-34
2022/11/23 00:09:42;;;;;;;2.28;1.45;;;;;;;8.36;68.91;92101.00;5055581;28;20017;-35
2022/11/23 00:12:08;;;;;;;1.63;1.17;;;;;;;8.35;69.39;92107.06;5049732;28;20056;-34
2022/11/23 00:14:33;;;;;;;16.60;1.60;;;;;;;8.34;69.52;92106.31;5049677;28;20090;-34
2022/11/23 00:16:59;;;;;;;0.88;0.85;;;;;;;8.26;70.60;92091.22;5049748;28;20406;-34
2022/11/23 00:19:24;;;;;;;2.50;1.13;;;;;;;8.26;70.58;92085.72;5031664;28;20087;-34
2022/11/23 00:21:50;;;;;;;1.45;1.35;;;;;;;8.19;71.03;92089.22;5049743;28;20071;-34
2022/11/23 00:24:15;;;;;;;1.20;1.10;;;;;;;8.21;71.28;92081.88;5049570;28;20025;-34
2022/11/23 00:26:41;;;;;;;2.25;1.27;;;;;;;8.26;71.47;92082.97;5049421;28;20451;-34
2022/11/23 00:29:06;;;;;;;2.33;1.30;;;;;;;8.27;71.74;92085.13;5049768;28;20021;-34
2022/11/23 00:31:32;;;;;;;2.78;0.85;;;;;;;8.20;72.23;92091.44;5049703;28;20578;-34
2022/11/23 00:33:58;;;;;;;1.38;1.13;;;;;;;8.16;73.02;92106.88;5049508;28;20155;-34
2022/11/23 00:36:26;;;;;;;0.98;0.93;;;;;;;8.06;73.42;92104.03;5049626;28;20025;-34
2022/11/23 00:38:53;;;;;;;1.77;1.13;;;;;;;8.08;73.02;92114.44;5049663;28;20017;-34
2022/11/23 00:41:24;;;;;;;2.85;1.20;;;;;;;8.06;73.53;92108.78;5049316;28;20497;-34
2022/11/23 00:43:49;;;;;;;1.27;1.17;;;;;;;8.05;73.68;92112.84;5049432;28;20024;-34
2022/11/23 00:46:19;;;;;;;2.35;1.40;;;;;;;8.00;74.51;92106.28;5051283;28;20028;-34
2022/11/23 00:48:45;;;;;;;;;;;;;;;8.05;75.00;92108.09;5072766;28;20048;-34
2022/11/23 00:51:13;;;;;;;2.33;1.15;;;;;;;8.04;75.10;92125.13;5073195;28;19915;-34
2022/11/23 00:53:39;;;;;;;5.30;1.33;;;;;;;8.07;75.63;92105.50;5072836;28;20027;-34
2022/11/23 00:56:04;;;;;;;2.33;1.30;;;;;;;7.99;75.94;92101.38;5073109;28;20036;-34
2022/11/23 00:58:30;;;;;;;1.63;1.30;;;;;;;8.01;76.88;92096.03;5073078;28;20031;-34
2022/11/23 01:01:09;;;;;;;1.40;1.20;;;;;;;7.91;77.10;92087.69;5071968;28;20028;-34
2022/11/23 01:03:37;;;;;;;1.05;1.05;;;;;;;7.81;78.04;92086.88;5052693;28;20067;-34
2022/11/23 01:06:08;;;;;;;2.20;1.30;;;;;;;7.76;78.44;92078.84;5052953;28;20453;-34
2022/11/23 01:08:33;;;;;;;1.85;1.10;;;;;;;7.80;78.45;92098.41;5057125;28;20099;-34
2022/11/23 01:11:04;;;;;;;1.38;1.27;;;;;;;7.77;78.66;92102.31;5072644;28;20112;-34
2022/11/23 01:13:30;;;;;;;7.35;1.20;;;;;;;7.60;79.29;92068.00;5072294;28;20405;-34
2022/11/23 01:15:56;;;;;;;1.58;1.27;;;;;;;7.86;78.56;92082.44;5072556;28;20108;-34
2022/11/23 01:18:22;;;;;;;1.98;1.75;;;;;;;7.83;78.88;92084.28;5072413;28;20099;-34
2022/11/23 01:20:48;;;;;;;5.22;1.25;;;;;;;7.81;78.89;92077.91;5072394;28;20025;-34
2022/11/23 01:23:13;;;;;;;1.98;1.20;;;;;;;7.78;79.43;92076.28;5072544;28;20020;-34
2022/11/23 01:25:39;;;;;;;2.45;1.45;;;;;;;7.81;79.32;92072.41;5071915;28;20028;-34
2022/11/23 01:28:04;;;;;;;1.73;1.55;;;;;;;7.78;79.31;92079.75;5072563;28;20043;-34
2022/11/23 01:30:29;;;;;;;1.60;1.33;;;;;;;7.80;79.80;92082.66;5056653;28;20029;-34
2022/11/23 01:32:55;;;;;;;1.67;1.02;;;;;;;7.77;80.15;92092.03;5052030;28;20063;-34
2022/11/23 01:35:20;;;;;;;1.52;1.27;;;;;;;7.79;80.12;92083.97;5052037;28;20021;-34
2022/11/23 01:37:46;;;;;;;2.08;1.60;;;;;;;7.79;80.09;92088.72;5052016;28;20032;-34
2022/11/23 01:40:11;;;;;;;1.63;1.20;;;;;;;7.72;80.58;92084.75;5052145;28;20021;-34
2022/11/23 01:42:50;;;;;;;2.03;1.00;;;;;;;7.79;80.53;92086.72;5051947;28;20099;-34
2022/11/23 01:45:34;;;;;;;;;;;;;;;7.93;80.99;92104.34;5035082;28;20035;-34
2022/11/23 01:48:01;;;;;;;5.97;1.58;;;;;;;7.85;81.26;92103.69;5051819;28;19915;-34
2022/11/23 01:50:27;;;;;;;1.27;1.00;;;;;;;7.89;81.31;92106.03;5051792;28;20032;-34
2022/11/23 01:52:52;;;;;;;3.22;2.00;;;;;;;7.86;82.13;92107.88;5052103;28;20025;-34
2022/11/23 01:55:18;;;;;;;7.93;1.52;;;;;;;7.93;82.53;92117.34;5051726;28;20021;-34
2022/11/23 01:57:43;;;;;;;4.18;1.80;;;;;;;8.03;82.61;92123.69;5056651;28;20046;-34
2022/11/23 02:00:12;;;;;;;4.55;1.88;;;;;;;8.04;82.85;92127.88;5071313;28;20433;-34
2022/11/23 02:02:41;;;;;;;4.13;1.58;;;;;;;8.00;83.50;92122.78;5071538;28;20024;-34
2022/11/23 02:05:07;;;;;;;2.88;1.95;;;;;;;8.04;83.82;92119.63;5053796;28;20061;-34
2022/11/23 02:07:33;;;;;;;3.42;1.50;;;;;;;8.10;84.21;92117.38;5071393;28;20035;-34
2022/11/23 02:09:58;;;;;;;2.08;1.70;;;;;;;8.19;83.84;92111.97;5037353;28;20025;-34
2022/11/23 02:12:24;;;;;;;3.22;2.03;;;;;;;8.28;83.79;92099.63;5051322;28;20044;-34
2022/11/23 02:14:49;;;;;;;2.45;1.60;;;;;;;8.33;84.46;92093.16;5051675;28;20528;-34
2022/11/23 02:17:15;;;;;;;3.60;1.98;;;;;;;8.25;84.84;92098.72;5051462;28;20397;-34
2022/11/23 02:20:09;;;;;;;4.30;2.13;;;;;;;8.26;85.20;92089.19;5051264;28;20021;-34
2022/11/23 02:22:49;;;;;;;2.60;1.67;;;;;;;8.23;85.82;92090.28;5016938;28;20059;-34
2022/11/23 02:25:25;;;;;;;7.47;2.13;;;;;;;8.34;86.04;92097.34;5055161;28;20017;-34
2022/11/23 02:27:51;;;;;;;5.15;1.98;;;;;;;8.30;86.26;92095.00;5071353;28;20033;-33
2022/11/23 02:30:17;;;;;;;9.48;2.33;;;;;;;8.36;85.66;92097.50;5057517;28;20025;-34
2022/11/23 02:32:43;;;;;;;3.22;2.20;;;;;;;8.37;86.01;92098.97;5033481;28;20013;-34
2022/11/23 02:35:10;;;;;;;2.38;2.03;;;;;;;8.39;85.51;92102.63;5051067;28;20546;-34
2022/11/23 02:37:36;;;;;;;4.30;3.45;;;;;;;8.41;85.52;92104.78;5050751;28;20086;-34
2022/11/23 02:40:04;;;;;;;2.78;2.47;;;;;;;8.40;85.96;92114.34;5050909;28;20024;-34
2022/11/23 02:42:30;;;;;;;4.43;2.22;;;;;;;8.45;85.85;92118.84;5051019;28;20143;-34
2022/11/23 02:45:07;;;;;;;5.13;2.85;;;;;;;8.49;85.59;92121.94;5051020;28;20021;-34
2022/11/23 02:47:32;;;;;;;4.63;2.63;;;;;;;8.54;85.51;92136.72;5032874;28;20059;-34
2022/11/23 02:49:58;;;;;;;16.85;3.45;;;;;;;8.48;85.69;92150.75;5050685;28;20060;-34
2022/11/23 02:52:23;;;;;;;9.23;3.08;;;;;;;8.49;86.45;92148.72;5050650;28;20060;-34
2022/11/23 02:54:48;;;;;;;4.07;2.75;;;;;;;8.36;87.18;92158.75;5062547;28;20025;-34
2022/11/23 02:57:14;;;;;;;6.28;3.47;;;;;;;8.27;86.91;92164.16;5070361;28;20027;-34
2022/11/23 02:59:39;;;;;;;8.05;2.92;;;;;;;8.24;86.36;92162.50;5052578;28;20021;-34
2022/11/23 03:02:05;;;;;;;5.55;3.85;;;;;;;8.22;86.73;92163.06;5070467;28;20042;-34
2022/11/23 03:04:31;;;;;;;6.88;3.95;;;;;;;8.18;87.52;92167.53;5070508;28;20492;-34
2022/11/23 03:06:56;;;;;;;6.57;4.25;;;;;;;8.15;88.01;92163.13;5070668;28;20032;-34
2022/11/23 03:09:24;;;;;;;3.10;2.75;;;;;;;8.01;86.97;92148.97;5059022;28;20127;-34
2022/11/23 03:11:50;;;;;;;4.88;3.50;;;;;;;8.08;85.87;92153.66;5049593;28;20082;-34
2022/11/23 03:14:16;;;;;;;4.18;2.92;;;;;;;8.16;86.19;92156.34;5050132;28;20021;-34
2022/11/23 03:16:41;;;;;;;5.30;3.15;;;;;;;8.11;86.84;92149.06;5050399;28;20024;-34
2022/11/23 03:19:06;;;;;;;3.45;3.15;;;;;;;8.02;88.09;92135.94;5050163;28;20036;-34
2022/11/23 03:21:32;;;;;;;3.65;2.83;;;;;;;7.84;88.87;92109.75;5050086;28;20024;-33
2022/11/23 03:23:57;;;;;;;3.97;3.22;;;;;;;7.67;90.05;92096.00;5050191;28;20021;-34
2022/11/23 03:26:23;;;;;;;3.83;3.00;;;;;;;7.48;90.71;92091.72;5063641;28;20488;-33
2022/11/23 03:28:48;;;;;;;8.68;4.35;;;;;;;7.30;92.11;92079.25;5068643;28;20021;-34
2022/11/23 03:31:14;;;;;;;6.10;3.85;;;;;;;7.27;92.86;92082.38;5050030;28;20436;-34
2022/11/23 03:33:39;;;;;;;7.43;3.67;;;;;;;7.21;93.39;92077.09;5049965;28;20485;-33
2022/11/23 03:36:05;;;;;;;4.18;3.38;;;;;;;7.23;93.57;92074.56;5049989;28;20036;-34
2022/11/23 03:38:30;;;;;;;5.15;3.90;;;;;;;7.19;93.89;92070.75;5049892;28;20021;-34
2022/11/23 03:40:56;;;;;;;5.13;3.50;;;;;;;7.22;94.25;92066.84;5050306;28;20029;-34
2022/11/23 03:43:21;;;;;;;6.43;4.45;;;;;;;7.25;93.78;92058.25;5049857;28;20013;-34
2022/11/23 03:45:47;;;;;;;5.43;4.10;;;;;;;7.20;94.08;92059.19;5032169;28;20029;-34
2022/11/23 03:48:13;;;;;;;7.07;3.80;;;;;;;7.15;94.93;92059.41;5049743;28;20025;-33
2022/11/23 03:50:38;;;;;;;7.35;3.38;;;;;;;7.24;96.26;92054.03;5058352;28;20028;-33
2022/11/23 03:53:05;;;;;;;4.50;3.80;;;;;;;7.07;97.70;92034.78;5069784;28;20031;-34
2022/11/23 03:55:30;;;;;;;5.18;4.03;;;;;;;7.19;98.47;92060.47;5070102;28;20044;-34
2022/11/23 03:57:58;;;;;;;6.18;4.43;;;;;;;7.18;99.31;92064.50;5070112;28;20432;-34
2022/11/23 04:00:24;;;;;;;12.25;5.72;;;;;;;7.20;100.00;92070.16;5070183;28;20016;-33
2022/11/23 04:02:50;;;;;;;7.43;4.78;;;;;;;7.20;100.00;92056.44;5070291;28;20012;-34
2022/11/23 04:05:15;;;;;;;6.90;4.70;;;;;;;7.27;100.00;92065.91;5052239;28;20024;-34
2022/11/23 04:07:41;;;;;;;11.57;5.30;;;;;;;7.29;100.00;92058.56;5070240;28;20032;-34
2022/11/23 04:10:07;;;;;;;9.45;5.90;;;;;;;7.29;100.00;92053.09;5052502;28;20021;-34
2022/11/23 04:12:32;;;;;;;6.55;5.20;;;;;;;7.35;100.00;92067.31;5049402;28;20040;-34
2022/11/23 04:14:57;;;;;;;9.48;6.28;;;;;;;7.33;100.00;92066.41;5049604;28;20028;-33
2022/11/23 04:17:23;;;;;;;8.00;6.28;;;;;;;7.29;100.00;92066.81;5049814;28;20025;-34
2022/11/23 04:19:48;;;;;;;10.95;6.55;;;;;;;7.31;100.00;92055.25;5049947;28;20017;-34
2022/11/23 04:22:14;;;;;;;29.10;7.15;;;;;;;7.30;100.00;92062.75;5051886;28;20481;-34
2022/11/23 04:24:39;;;;;;;9.48;6.72;;;;;;;7.34;100.00;92060.34;5035588;28;20059;-34
2022/11/23 04:27:05;;;;;;;10.18;7.10;;;;;;;7.33;100.00;92056.16;5072846;28;20029;-34
2022/11/23 04:29:30;;;;;;;13.48;7.35;;;;;;;7.41;100.00;92050.59;5048043;28;20020;-34
2022/11/23 04:31:55;;;;;;;10.20;6.72;;;;;;;7.47;100.00;92056.59;5053311;28;20103;-33
2022/11/23 04:34:21;;;;;;;11.02;9.52;;;;;;;7.42;100.00;92052.06;5053193;28;20032;-34
2022/11/23 04:36:46;;;;;;;12.07;8.73;;;;;;;7.41;100.00;92056.81;5053455;28;20028;-33
2022/11/23 04:39:12;;;;;;;9.40;7.80;;;;;;;7.45;100.00;92050.94;5053528;28;20029;-34
2022/11/23 04:41:38;;;;;;;16.05;10.05;;;;;;;7.47;100.00;92064.84;5053444;28;20504;-33
2022/11/23 04:44:04;;;;;;;18.95;11.15;;;;;;;7.48;100.00;92067.03;5053489;28;20454;-34
2022/11/23 04:46:29;;;;;;;14.20;10.40;;;;;;;7.49;100.00;92065.72;5054462;28;20088;-34
2022/11/23 04:48:55;;;;;;;12.77;9.95;;;;;;;7.50;100.00;92069.19;5053270;28;20077;-34
2022/11/23 04:51:20;;;;;;;13.98;9.68;;;;;;;7.55;100.00;92073.75;5053337;28;20052;-34
2022/11/23 04:53:46;;;;;;;14.90;10.73;;;;;;;7.62;100.00;92081.19;5052801;28;20509;-34
2022/11/23 04:56:11;;;;;;;13.18;10.00;;;;;;;7.66;100.00;92073.28;5052904;28;20025;-34
2022/11/23 04:58:37;;;;;;;17.95;10.43;;;;;;;7.67;100.00;92074.00;5052797;28;20079;-34
2022/11/23 05:01:03;;;;;;;12.90;9.73;;;;;;;7.65;100.00;92064.31;5052778;28;20017;-34
2022/11/23 05:03:29;;;;;;;16.13;10.20;;;;;;;7.70;100.00;92073.59;5052933;28;20021;-34
2022/11/23 05:05:57;;;;;;;24.15;10.57;;;;;;;7.69;100.00;92061.16;5052644;28;20025;-34
2022/11/23 05:08:22;;;;;;;13.15;8.90;;;;;;;7.76;100.00;92071.34;5052830;28;20017;-34
2022/11/23 05:10:48;;;;;;;18.65;10.82;;;;;;;7.77;100.00;92083.06;5052903;28;20055;-34
2022/11/23 05:13:13;;;;;;;17.58;10.38;;;;;;;7.83;100.00;92072.56;5052344;28;20032;-33
2022/11/23 05:15:39;;;;;;;15.40;10.13;;;;;;;7.82;100.00;92082.81;5052523;28;20497;-34
2022/11/23 05:18:05;;;;;;;12.95;9.38;;;;;;;7.83;100.00;92084.28;5052473;28;20073;-33
2022/11/23 05:20:32;;;;;;;18.05;10.82;;;;;;;7.82;100.00;92079.38;5052390;28;20053;-34
2022/11/23 05:22:57;;;;;;;13.25;8.88;;;;;;;7.83;100.00;92087.03;5052665;28;20029;-34
2022/11/23 05:25:23;;;;;;;16.80;8.55;;;;;;;7.88;100.00;92086.09;5052121;28;20463;-33
2022/11/23 05:27:49;;;;;;;16.08;10.23;;;;;;;7.81;100.00;92088.88;5052567;28;20021;-33
2022/11/23 05:30:14;;;;;;;15.95;10.88;;;;;;;7.78;100.00;92087.25;5052112;28;20048;-34
2022/11/23 05:32:40;;;;;;;20.13;11.85;;;;;;;7.74;100.00;92082.16;5051974;28;20017;-34
2022/11/23 05:35:06;;;;;;;18.95;10.55;;;;;;;7.79;100.00;92092.22;5052058;28;20028;-34
2022/11/23 05:37:33;;;;;;;15.95;11.30;;;;;;;7.82;100.00;92079.38;5052027;28;20033;-34
2022/11/23 05:39:59;;;;;;;22.27;14.35;;;;;;;7.83;100.00;92097.28;5052391;28;20036;-34
2022/11/23 05:42:24;;;;;;;28.65;13.55;;;;;;;7.88;100.00;92101.84;5054258;28;20116;-34
2022/11/23 05:44:50;;;;;;;26.48;14.75;;;;;;;7.89;100.00;92100.53;5071985;28;20162;-34
2022/11/23 05:47:15;;;;;;;29.75;15.40;;;;;;;7.94;100.00;92099.56;5061502;28;20013;-33
2022/11/23 05:49:41;;;;;;;27.98;15.93;;;;;;;7.96;100.00;92099.75;5052158;28;20382;-34
2022/11/23 05:52:06;;;;;;;20.50;12.35;;;;;;;7.98;100.00;92091.66;5051994;28;20552;-34
2022/11/23 05:54:32;;;;;;;17.42;11.18;;;;;;;7.96;100.00;92094.97;5052046;28;20409;-34
2022/11/23 05:56:57;;;;;;;19.50;12.10;;;;;;;7.99;100.00;92098.63;5051987;28;20052;-34
2022/11/23 05:59:23;;;;;;;15.52;10.80;;;;;;;7.95;100.00;92101.75;5051707;28;20051;-34
2022/11/23 06:01:48;;;;;;;20.95;14.05;;;;;;;7.88;100.00;92099.09;5051897;28;20024;-34
2022/11/23 06:04:13;;;;;;;20.00;12.13;;;;;;;7.85;100.00;92094.72;5051643;28;20107;-34
2022/11/23 06:06:39;;;;;;;17.90;10.82;;;;;;;7.84;100.00;92099.47;5051507;28;20036;-34
2022/11/23 06:09:04;;;;;;;23.15;12.93;;;;;;;7.86;100.00;92101.66;5051394;28;20068;-34
2022/11/23 06:11:31;;;;;;;20.55;14.18;;;;;;;7.89;100.00;92101.25;5051604;28;20108;-34
2022/11/23 06:13:57;;;;;;;23.88;13.68;;;;;;;7.90;100.00;92105.47;5051198;28;20497;-34
2022/11/23 06:16:22;;;;;;;26.70;13.95;;;;;;;7.88;100.00;92104.59;5051357;28;20028;-34
2022/11/23 06:18:48;;;;;;;22.98;12.80;;;;;;;7.97;100.00;92095.72;5051288;28;20072;-34
2022/11/23 06:21:13;;;;;;;20.20;12.88;;;;;;;8.02;100.00;92098.22;5051202;28;20033;-34
2022/11/23 06:23:39;;;;;;;21.58;11.50;;;;;;;7.98;100.00;92103.38;5051115;28;20020;-34
2022/11/23 06:26:04;;;;;;;14.70;9.57;;;;;;;8.01;100.00;92107.03;5062221;28;20035;-33
2022/11/23 06:28:30;;;;;;;17.50;9.52;;;;;;;8.01;100.00;92107.03;5071294;28;20059;-34
2022/11/23 06:31:00;;;;;;;14.82;10.60;;;;;;;7.94;100.00;92107.81;5052079;28;20557;-33
2022/11/23 06:33:25;;;;;;;25.05;14.15;;;;;;;7.97;100.00;92109.44;5050973;28;20025;-34
2022/11/23 06:35:55;;;;;;;16.55;11.68;;;;;;;7.92;100.00;92096.66;5051279;28;20088;-33
2022/11/23 06:38:21;;;;;;;12.40;8.50;;;;;;;8.04;100.00;92105.88;5050919;28;20040;-34
2022/11/23 06:40:46;;;;;;;15.77;8.85;;;;;;;8.14;100.00;92104.66;5070683;28;20044;-34
2022/11/23 06:43:12;;;;;;;15.13;10.50;;;;;;;8.22;100.00;92104.59;5070722;28;20085;-33
2022/11/23 06:45:37;;;;;;;13.57;9.23;;;;;;;8.34;100.00;92100.81;5070783;28;20024;-34
2022/11/23 06:48:03;;;;;;;16.33;10.48;;;;;;;8.37;100.00;92099.72;5054172;28;20025;-34
2022/11/23 06:50:29;;;;;;;75.75;34.75;;;;;;;8.52;100.00;92087.78;5050665;28;20485;-34
2022/11/23 06:52:55;;;;;;;207.68;83.70;;;;;;;8.69;100.00;92081.53;5050638;28;20025;-34
2022/11/23 06:55:21;;;;;;;220.05;86.93;;;;;;;8.91;100.00;92075.75;5050534;28;20029;-33
2022/11/23 06:57:47;;;;;;;94.38;47.35;;;;;;;9.06;100.00;92075.53;5050913;28;20043;-34
2022/11/23 07:00:13;;;;;;;47.30;27.95;;;;;;;9.28;99.45;92084.75;5050563;28;20029;-34
2022/11/23 07:02:38;;;;;;;25.38;16.38;;;;;;;9.50;98.37;92091.97;5050746;28;20059;-34
2022/11/23 07:05:04;;;;;;;18.25;13.25;;;;;;;9.55;95.56;92090.94;5050473;28;20493;-34
2022/11/23 07:07:29;;;;;;;16.95;11.73;;;;;;;9.64;94.42;92097.78;5050240;28;20134;-34
2022/11/23 07:09:55;;;;;;;13.30;9.18;;;;;;;9.44;92.69;92099.03;5032617;28;20032;-34
2022/11/23 07:12:20;;;;;;;12.30;7.80;;;;;;;9.42;92.91;92099.59;5050156;28;20053;-34
2022/11/23 07:14:45;;;;;;;13.35;8.13;;;;;;;9.43;93.15;92100.34;5050662;28;20036;-34
2022/11/23 07:17:11;;;;;;;11.55;7.82;;;;;;;9.51;93.10;92107.19;5050314;28;20029;-34
2022/11/23 07:19:38;;;;;;;12.35;8.07;;;;;;;9.57;93.22;92101.41;5050149;28;20452;-34
2022/11/23 07:22:03;;;;;;;10.13;8.48;;;;;;;9.69;93.18;92107.81;5050245;28;20025;-34
2022/11/23 07:24:29;;;;;;;10.43;7.65;;;;;;;9.74;92.20;92110.31;5050150;28;20025;-34
2022/11/23 07:26:54;;;;;;;12.65;8.57;;;;;;;9.71;91.58;92111.47;5068026;28;20082;-34
2022/11/23 07:29:19;;;;;;;11.63;8.40;;;;;;;9.54;91.74;92103.28;5064221;28;20028;-34
2022/11/23 07:31:45;;;;;;;11.13;7.97;;;;;;;9.44;92.94;92112.81;5050082;28;20090;-34
2022/11/23 07:34:12;;;;;;;11.90;7.97;;;;;;;9.46;93.31;92115.72;5050263;28;20025;-34
2022/11/23 07:36:37;;;;;;;9.18;7.63;;;;;;;9.47;93.61;92117.16;5066513;28;20082;-34
2022/11/23 07:39:03;;;;;;;10.02;7.80;;;;;;;9.51;93.97;92120.97;5070092;28;20024;-34
2022/11/23 07:41:28;;;;;;;12.65;8.10;;;;;;;9.61;94.15;92107.97;5070211;28;20038;-34
2022/11/23 07:43:53;;;;;;;9.35;7.63;;;;;;;9.80;93.67;92110.03;5070008;28;20027;-34
2022/11/23 07:46:19;;;;;;;9.63;7.57;;;;;;;9.97;93.27;92114.72;5067391;28;20033;-34
2022/11/23 07:48:45;;;;;;;9.43;6.68;;;;;;;10.01;91.58;92109.50;5049952;28;20112;-34
2022/11/23 07:51:10;;;;;;;11.18;7.50;;;;;;;10.14;90.76;92109.84;5049847;28;20075;-34
2022/11/23 07:53:36;;;;;;;8.85;6.70;;;;;;;10.11;89.97;92102.75;5050023;28;20035;-34
2022/11/23 07:56:02;;;;;;;6.75;5.80;;;;;;;10.19;90.03;92114.38;5049947;28;20118;-34
2022/11/23 07:58:27;;;;;;;7.50;5.85;;;;;;;10.25;90.24;92103.78;5053842;28;20037;-34
2022/11/23 08:00:53;;;;;;;9.95;6.55;;;;;;;10.45;89.75;92104.53;5053892;28;20025;-34
2022/11/23 08:03:19;;;;;;;7.82;6.13;;;;;;;10.82;88.77;92097.53;5053984;28;20021;-34
2022/11/23 08:05:45;;;;;;;41.08;12.05;;;;;;;11.50;87.40;92092.59;5053882;28;20487;-34
2022/11/23 08:08:11;;;;;;;12.73;8.20;;;;;;;12.19;81.95;92093.16;5053692;28;20031;-34
2022/11/23 08:10:37;;;;;;;8.30;6.53;;;;;;;12.43;79.70;92088.47;5053801;28;20033;-34
2022/11/23 08:13:04;;;;;;;8.68;5.55;;;;;;;12.53;77.52;92103.69;5053462;28;20471;-34
2022/11/23 08:15:30;;;;;;;5.40;4.60;;;;;;;12.70;77.78;92097.16;5053495;28;20116;-35
2022/11/23 08:18:00;;;;;;;5.93;4.75;;;;;;;12.81;76.46;92099.97;5053886;28;20075;-34
2022/11/23 08:20:26;;;;;;;3.53;3.03;;;;;;;12.99;74.09;92103.19;5053841;28;20104;-34
2022/11/23 08:22:54;;;;;;;4.57;3.75;;;;;;;13.66;72.04;92106.00;5053550;28;20029;-34
2022/11/23 08:25:21;;;;;;;3.75;3.13;;;;;;;14.67;68.32;92106.47;5058337;28;20051;-34
2022/11/23 08:27:46;;;;;;;4.45;3.38;;;;;;;15.37;64.52;92106.19;5073681;28;20020;-34
2022/11/23 08:30:13;;;;;;;3.53;2.58;;;;;;;15.38;61.99;92097.22;5060338;28;20048;-34
2022/11/23 08:32:38;;;;;;;3.65;3.35;;;;;;;15.37;63.06;92106.19;5067763;28;20016;-34
2022/11/23 08:35:04;;;;;;;5.47;3.50;;;;;;;15.81;61.29;92114.91;5073339;28;20086;-34
2022/11/23 08:37:29;;;;;;;3.60;2.78;;;;;;;15.57;61.55;92101.78;5072975;28;20021;-34
2022/11/23 08:39:55;;;;;;;3.60;3.30;;;;;;;15.03;62.36;92102.22;5073252;28;20025;-34
2022/11/23 08:42:20;;;;;;;4.90;3.92;;;;;;;15.08;62.43;92099.06;5073073;28;20020;-35
2022/11/23 08:44:46;;;;;;;5.68;3.15;;;;;;;14.67;62.93;92102.97;5073422;28;20029;-34
2022/11/23 08:47:11;;;;;;;5.30;3.78;;;;;;;13.90;64.73;92108.81;5063479;28;20042;-34
2022/11/23 08:49:36;;;;;;;4.85;3.72;;;;;;;13.96;65.89;92111.94;5052921;28;20033;-34
2022/11/23 08:52:02;;;;;;;4.35;3.72;;;;;;;14.04;65.74;92112.44;5053040;28;20029;-34
2022/11/23 08:54:28;;;;;;;4.53;3.45;;;;;;;14.35;65.27;92107.38;5053089;28;20029;-34
2022/11/23 08:56:53;;;;;;;4.20;3.30;;;;;;;14.65;63.99;92098.00;5052889;28;20516;-34
2022/11/23 08:59:19;;;;;;;3.95;3.55;;;;;;;14.65;63.15;92109.13;5052654;28;20039;-34
2022/11/23 09:01:44;;;;;;;4.10;3.67;;;;;;;14.29;64.32;92112.56;5052808;28;20103;-34
2022/11/23 09:04:10;;;;;;;4.10;3.70;;;;;;;13.97;65.41;92114.13;5052799;28;20025;-34
2022/11/23 09:06:35;;;;;;;5.85;3.65;;;;;;;13.79;66.38;92120.63;5052706;28;20143;-34
2022/11/23 09:09:01;;;;;;;3.40;3.10;;;;;;;13.74;67.15;92110.59;5051436;28;20024;-34
2022/11/23 09:11:27;;;;;;;4.72;3.58;;;;;;;14.40;66.41;92120.88;5052406;28;20025;-34
2022/11/23 09:13:53;;;;;;;4.88;4.00;;;;;;;15.89;64.37;92114.63;5052403;28;20044;-34
2022/11/23 09:16:19;;;;;;;7.55;5.43;;;;;;;17.55;55.53;92112.50;5052427;28;20032;-34
2022/11/23 09:18:45;;;;;;;5.20;3.05;;;;;;;17.78;52.10;92112.91;5052464;28;20036;-34
2022/11/23 09:21:10;;;;;;;6.80;2.65;;;;;;;18.03;52.17;92101.53;5052721;28;20024;-34
2022/11/23 09:23:36;;;;;;;3.13;2.53;;;;;;;18.04;51.47;92091.06;5052652;28;20017;-34
2022/11/23 09:26:03;;;;;;;4.72;3.15;;;;;;;16.89;53.22;92082.84;5062790;28;20454;-34
2022/11/23 09:28:29;;;;;;;3.15;2.75;;;;;;;17.40;53.15;92097.88;5060879;28;20053;-35
2022/11/23 09:30:55;;;;;;;5.45;2.97;;;;;;;18.65;50.58;92102.84;5052621;28;20071;-34
2022/11/23 09:33:22;;;;;;;3.58;2.95;;;;;;;19.18;49.30;92088.97;5052092;28;20029;-34
2022/11/23 09:35:58;;;;;;;3.95;3.42;;;;;;;19.44;48.42;92090.06;5052061;28;20032;-34
2022/11/23 09:38:23;;;;;;;4.45;2.58;;;;;;;18.67;48.86;92091.75;5052410;28;20029;-34
2022/11/23 09:41:01;;;;;;;9.20;3.88;;;;;;;18.94;49.40;92088.72;5052021;28;20025;-34
2022/11/23 09:43:40;;;;;;;3.88;3.40;;;;;;;19.80;46.59;92082.34;5052101;28;20060;-34
2022/11/23 09:46:12;;;;;;;3.33;2.47;;;;;;;20.27;44.07;92086.28;5052302;28;20083;-34
2022/11/23 09:49:01;;;;;;;4.65;2.97;;;;;;;19.98;45.76;92080.25;5034126;28;20033;-34
2022/11/23 09:51:27;;;;;;;3.25;2.88;;;;;;;20.65;43.27;92075.72;5051813;28;20033;-34
2022/11/23 09:54:03;;;;;;;3.50;3.20;;;;;;;20.41;43.66;92072.06;5051709;28;20086;-34
2022/11/23 09:56:32;;;;;;;3.47;3.17;;;;;;;19.35;45.94;92082.69;5052010;28;20028;-34
2022/11/23 09:59:00;;;;;;;4.20;3.70;;;;;;;19.22;46.97;92081.47;5033927;28;20028;-34
2022/11/23 10:01:29;;;;;;;3.92;3.50;;;;;;;19.48;46.47;92079.75;5051812;28;20094;-34
2022/11/23 10:03:55;;;;;;;8.38;3.63;;;;;;;19.64;45.71;92069.16;5051715;28;20028;-34
2022/11/23 10:06:26;;;;;;;3.53;2.90;;;;;;;19.88;44.95;92091.78;5033714;28;20471;-34
2022/11/23 10:09:39;;;;;;;3.33;3.03;;;;;;;20.03;43.80;92079.03;5058638;28;20063;-35
2022/11/23 10:12:20;;;;;;;4.97;2.90;;;;;;;18.62;46.17;92087.34;4970270;28;20078;-34
2022/11/23 10:15:21;;;;;;;5.43;4.45;;;;;;;17.82;49.39;92082.38;5051510;28;20048;-34
2022/11/23 10:18:01;;;;;;;4.70;4.25;;;;;;;16.89;52.22;92077.25;5017991;28;20063;-34
2022/11/23 10:20:56;;;;;;;4.50;4.10;;;;;;;16.40;53.08;92071.34;5053217;28;20024;-34
2022/11/23 10:23:54;;;;;;;5.35;4.20;;;;;;;15.34;56.97;92063.66;5070996;28;20035;-34
2022/11/23 10:26:41;;;;;;;3.30;3.00;;;;;;;15.31;55.98;92064.84;5059980;28;20106;-33
2022/11/23 10:29:36;;;;;;;4.63;4.00;;;;;;;15.43;57.19;92059.25;5066988;28;20669;-34
2022/11/23 10:32:04;;;;;;;3.53;3.20;;;;;;;15.99;55.57;92065.03;5049407;28;20112;-34
2022/11/23 10:34:47;;;;;;;4.40;3.08;;;;;;;16.47;53.46;92053.59;5050954;28;20021;-34
2022/11/23 10:37:13;;;;;;;4.25;3.10;;;;;;;17.10;52.71;92054.59;5033248;28;20067;-34
2022/11/23 10:39:38;;;;;;;3.50;3.08;;;;;;;17.54;51.56;92066.44;5051144;28;20016;-34
2022/11/23 10:42:17;;;;;;;3.78;2.95;;;;;;;18.14;49.71;92053.13;5050838;28;20489;-34
2022/11/23 10:44:45;;;;;;;5.85;3.13;;;;;;;18.70;46.87;92059.72;5033146;28;20100;-34
2022/11/23 10:47:19;;;;;;;3.35;3.03;;;;;;;19.44;46.00;92037.59;5033204;28;20028;-34
2022/11/23 10:49:57;;;;;;;3.58;2.83;;;;;;;19.71;44.68;92052.63;5033073;28;20726;-34
2022/11/23 10:52:31;;;;;;;4.32;3.13;;;;;;;19.90;44.19;92051.94;5050983;28;20047;-34
2022/11/23 10:54:59;;;;;;;3.70;2.15;;;;;;;20.56;41.57;92048.75;5050932;28;20039;-35
2022/11/23 10:57:35;;;;;;;1.90;1.75;;;;;;;20.89;40.38;92047.78;5050610;28;20025;-35
2022/11/23 11:00:13;;;;;;;2.55;1.85;;;;;;;21.96;37.62;92049.13;5033137;28;20199;-34
2022/11/23 11:02:43;;;;;;;1.92;1.35;;;;;;;21.77;36.99;92044.31;5050747;28;20025;-34
2022/11/23 11:05:28;;;;;;;1.45;1.25;;;;;;;21.48;36.00;92051.16;5050494;28;20594;-34
2022/11/23 11:07:54;;;;;;;0.90;0.90;;;;;;;21.57;35.68;92049.34;5050782;28;20025;-34
2022/11/23 11:10:38;;;;;;;1.33;1.23;;;;;;;20.44;37.02;92053.94;5069742;28;20040;-34
2022/11/23 11:13:21;;;;;;;1.40;1.30;;;;;;;19.52;40.27;92045.59;5049092;28;20525;-34
2022/11/23 11:15:56;;;;;;;2.25;1.73;;;;;;;18.74;42.70;92054.31;5050832;28;20025;-34
2022/11/23 11:18:25;;;;;;;1.88;1.63;;;;;;;18.18;44.15;92058.91;5050328;28;20032;-34
2022/11/23 11:20:59;;;;;;;2.35;2.03;;;;;;;17.56;46.31;92058.16;5040270;28;20449;-34
2022/11/23 11:23:25;;;;;;;3.25;2.13;;;;;;;17.16;46.48;92054.16;5029123;28;20021;-34
2022/11/23 11:26:02;;;;;;;2.30;2.10;;;;;;;16.61;49.31;92054.31;5039514;28;20024;-34
2022/11/23 11:28:40;;;;;;;2.13;1.95;;;;;;;16.32;50.01;92045.88;5050484;28;20032;-34
2022/11/23 11:31:17;;;;;;;2.30;1.95;;;;;;;17.04;48.95;92048.03;5048490;28;20575;-34
2022/11/23 11:33:53;;;;;;;1.85;1.75;;;;;;;17.23;47.72;92042.69;5050257;28;20036;-35
2022/11/23 11:36:19;;;;;;;4.15;1.50;;;;;;;16.87;45.69;92043.00;5049299;28;20504;-34